createdAt,value
2022-08-17T00:01:52.299Z,20.95
2022-08-17T00:04:21.592Z,20.95
2022-08-17T00:06:49.663Z,20.97
2022-08-17T00:09:18.895Z,20.96
2022-08-17T00:12:42.133Z,20.97
2022-08-17T00:14:36.432Z,20.97
2022-08-17T00:17:04.056Z,21.04
2022-08-17T00:19:32.812Z,21.06
2022-08-17T00:22:30.824Z,20.99
2022-08-17T00:24:48.360Z,20.96
2022-08-17T00:27:15.613Z,20.99
2022-08-17T00:29:42.676Z,20.98
2022-08-17T00:33:12.227Z,20.99
2022-08-17T00:34:57.708Z,20.99
2022-08-17T00:37:24.563Z,20.96
2022-08-17T00:39:51.920Z,20.94
2022-08-17T00:42:19.620Z,20.95
2022-08-17T00:44:46.560Z,20.93
2022-08-17T00:47:13.464Z,20.90
2022-08-17T00:49:40.647Z,20.89
2022-08-17T00:52:16.296Z,20.86
2022-08-17T00:54:49.000Z,20.82
2022-08-17T00:57:23.048Z,20.79
2022-08-17T01:00:02.314Z,20.55
2022-08-17T01:02:42.028Z,20.45
2022-08-17T01:05:16.281Z,20.42
2022-08-17T01:07:49.071Z,20.44
2022-08-17T01:11:00.534Z,20.33
2022-08-17T01:13:09.580Z,20.22
2022-08-17T01:15:40.901Z,20.26
2022-08-17T01:18:10.738Z,20.09
2022-08-17T01:20:48.406Z,19.85
2022-08-17T01:23:20.701Z,19.58
2022-08-17T01:25:52.107Z,19.46
2022-08-17T01:28:52.510Z,19.42
2022-08-17T01:31:09.074Z,19.31
2022-08-17T01:33:37.281Z,19.24
2022-08-17T01:36:07.431Z,19.30
2022-08-17T01:38:37.072Z,19.38
2022-08-17T01:41:12.743Z,19.52
2022-08-17T01:43:51.197Z,19.66
2022-08-17T01:46:25.258Z,19.76
2022-08-17T01:48:53.980Z,19.81
2022-08-17T01:51:21.824Z,19.89
2022-08-17T01:53:54.390Z,19.95
2022-08-17T01:56:25.525Z,19.96
2022-08-17T01:58:53.455Z,19.94
2022-08-17T02:01:26.942Z,19.97
2022-08-17T02:04:00.817Z,19.99
2022-08-17T02:06:31.343Z,19.99
2022-08-17T02:09:16.937Z,19.96
2022-08-17T02:11:46.288Z,19.93
2022-08-17T02:14:14.153Z,19.90
2022-08-17T02:16:43.026Z,19.92
2022-08-17T02:19:14.793Z,19.88
2022-08-17T02:21:45.312Z,19.85
2022-08-17T02:24:58.279Z,19.71
2022-08-17T02:27:07.467Z,19.58
2022-08-17T02:29:34.402Z,19.38
2022-08-17T02:32:01.433Z,19.40
2022-08-17T02:34:29.115Z,19.43
2022-08-17T02:36:56.038Z,19.33
2022-08-17T02:39:24.259Z,19.22
2022-08-17T02:42:01.162Z,19.16
2022-08-17T02:44:38.873Z,19.23
2022-08-17T02:47:09.531Z,19.33
2022-08-17T02:49:37.668Z,19.27
2022-08-17T02:52:07.553Z,19.18
2022-08-17T02:54:39.953Z,19.20
2022-08-17T02:57:10.129Z,19.18
2022-08-17T02:59:37.219Z,19.13
2022-08-17T03:02:04.862Z,19.01
2022-08-17T03:04:35.110Z,19.00
2022-08-17T03:07:04.015Z,18.93
2022-08-17T03:09:31.099Z,18.77
2022-08-17T03:12:07.748Z,18.68
2022-08-17T03:14:41.279Z,18.54
2022-08-17T03:17:08.913Z,18.56
2022-08-17T03:19:35.980Z,18.65
2022-08-17T03:22:35.583Z,18.74
2022-08-17T03:24:55.672Z,18.79
2022-08-17T03:27:24.519Z,18.86
2022-08-17T03:29:51.386Z,18.96
2022-08-17T03:32:18.249Z,19.10
2022-08-17T03:34:45.263Z,19.14
2022-08-17T03:37:12.415Z,19.20
2022-08-17T03:39:39.310Z,19.27
2022-08-17T03:42:31.317Z,19.15
2022-08-17T03:45:03.333Z,19.10
2022-08-17T03:47:30.786Z,19.08
2022-08-17T03:49:57.659Z,19.14
2022-08-17T03:52:24.841Z,19.15
2022-08-17T03:54:51.706Z,19.19
2022-08-17T03:57:18.811Z,19.18
2022-08-17T03:59:45.954Z,19.01
2022-08-17T04:02:21.445Z,18.80
2022-08-17T04:04:48.865Z,18.85
2022-08-17T04:07:15.751Z,18.51
2022-08-17T04:09:42.744Z,18.55
2022-08-17T04:12:11.162Z,18.58
2022-08-17T04:14:51.463Z,18.68
2022-08-17T04:17:23.494Z,18.77
2022-08-17T04:19:50.449Z,18.85
2022-08-17T04:22:31.377Z,18.85
2022-08-17T04:25:07.746Z,18.86
2022-08-17T04:27:35.326Z,18.91
2022-08-17T04:30:02.722Z,18.95
2022-08-17T04:33:04.429Z,19.01
2022-08-17T04:35:22.467Z,19.03
2022-08-17T04:37:50.690Z,18.99
2022-08-17T04:40:19.785Z,19.03
2022-08-17T04:43:02.117Z,19.00
2022-08-17T04:45:31.918Z,19.09
2022-08-17T04:48:01.076Z,19.11
2022-08-17T04:50:28.361Z,19.19
2022-08-17T04:52:57.227Z,18.84
2022-08-17T04:55:24.308Z,18.72
2022-08-17T04:57:51.464Z,18.71
2022-08-17T05:00:18.631Z,18.78
2022-08-17T05:02:50.339Z,18.77
2022-08-17T05:05:21.638Z,18.84
2022-08-17T05:07:52.066Z,19.38
2022-08-17T05:10:18.935Z,20.22
2022-08-17T05:12:45.887Z,21.06
2022-08-17T05:15:14.357Z,21.83
2022-08-17T05:17:41.369Z,22.25
2022-08-17T05:20:09.874Z,22.75
2022-08-17T05:22:48.658Z,23.22
2022-08-17T05:25:19.010Z,23.98
2022-08-17T05:27:52.872Z,24.73
2022-08-17T05:30:20.956Z,25.12
2022-08-17T05:32:54.307Z,25.99
2022-08-17T05:35:23.053Z,26.44
2022-08-17T05:37:52.277Z,26.94
2022-08-17T05:40:22.004Z,27.42
2022-08-17T05:42:50.351Z,27.41
2022-08-17T05:45:23.629Z,27.62
2022-08-17T05:48:08.835Z,27.12
2022-08-17T05:50:56.600Z,28.09
2022-08-17T05:53:40.554Z,28.68
2022-08-17T05:56:29.958Z,29.04
2022-08-17T05:59:14.712Z,29.41
2022-08-17T06:01:52.677Z,27.27
2022-08-17T06:04:37.228Z,26.08
2022-08-17T06:07:17.173Z,26.77
2022-08-17T06:10:00.732Z,28.13
2022-08-17T06:12:47.562Z,28.82
2022-08-17T06:15:30.512Z,29.79
2022-08-17T06:18:04.897Z,30.36
2022-08-17T06:20:46.262Z,30.80
2022-08-17T06:23:21.122Z,30.85
2022-08-17T06:25:58.134Z,31.12
2022-08-17T06:28:36.170Z,31.06
2022-08-17T06:31:12.184Z,30.76
2022-08-17T06:33:41.186Z,30.48
2022-08-17T06:36:20.297Z,30.11
2022-08-17T06:39:03.043Z,30.31
2022-08-17T06:41:44.813Z,31.06
2022-08-17T06:44:50.019Z,31.25
2022-08-17T06:47:12.279Z,31.66
2022-08-17T06:49:55.095Z,32.05
2022-08-17T06:52:46.841Z,30.88
2022-08-17T06:55:23.647Z,28.86
2022-08-17T06:57:57.779Z,28.34
2022-08-17T07:00:31.970Z,27.33
2022-08-17T07:03:10.028Z,26.28
2022-08-17T07:05:44.046Z,25.83
2022-08-17T07:08:19.766Z,25.67
2022-08-17T07:10:53.076Z,26.86
2022-08-17T07:13:41.763Z,28.70
2022-08-17T07:16:19.942Z,30.24
2022-08-17T07:18:50.602Z,31.02
2022-08-17T07:21:33.516Z,31.55
2022-08-17T07:24:32.058Z,32.21
2022-08-17T07:27:10.488Z,32.30
2022-08-17T07:29:50.264Z,32.39
2022-08-17T07:32:24.598Z,33.61
2022-08-17T07:35:11.464Z,35.19
2022-08-17T07:37:40.809Z,33.63
2022-08-17T07:40:20.117Z,32.74
2022-08-17T07:43:22.249Z,33.79
2022-08-17T07:45:59.415Z,33.45
2022-08-17T07:48:27.309Z,33.52
2022-08-17T07:50:54.220Z,34.04
2022-08-17T07:53:25.827Z,33.70
2022-08-17T07:55:54.239Z,32.81
2022-08-17T07:58:24.118Z,32.48
2022-08-17T08:01:09.790Z,32.29
2022-08-17T08:03:44.006Z,32.31
2022-08-17T08:06:22.233Z,33.24
2022-08-17T08:08:53.454Z,33.85
2022-08-17T08:11:33.353Z,34.49
2022-08-17T08:14:28.653Z,34.98
2022-08-17T08:17:01.925Z,35.77
2022-08-17T08:19:30.658Z,36.47
2022-08-17T08:22:04.853Z,36.81
2022-08-17T08:25:02.759Z,35.83
2022-08-17T08:27:49.790Z,34.91
2022-08-17T08:30:20.263Z,34.32
2022-08-17T08:33:16.570Z,34.41
2022-08-17T08:35:50.801Z,34.00
2022-08-17T08:38:33.405Z,33.15
2022-08-17T08:41:21.751Z,32.92
2022-08-17T08:44:07.766Z,32.42
2022-08-17T08:46:49.088Z,31.96
2022-08-17T08:50:03.491Z,31.42
2022-08-17T08:52:54.203Z,30.86
2022-08-17T08:55:42.034Z,30.73
2022-08-17T08:58:31.870Z,30.45
2022-08-17T09:01:18.149Z,30.30
2022-08-17T09:04:19.929Z,29.94
2022-08-17T09:07:06.411Z,29.92
2022-08-17T09:09:51.242Z,29.74
2022-08-17T09:12:40.386Z,29.52
2022-08-17T09:15:16.375Z,29.25
2022-08-17T09:18:08.561Z,29.05
2022-08-17T09:20:50.386Z,28.58
2022-08-17T09:23:32.856Z,28.51
2022-08-17T09:26:10.440Z,28.57
2022-08-17T09:28:42.295Z,28.61
2022-08-17T09:31:18.844Z,28.62
2022-08-17T09:33:48.983Z,28.69
2022-08-17T09:36:26.652Z,28.68
2022-08-17T09:39:06.182Z,28.66
2022-08-17T09:41:48.685Z,28.76
2022-08-17T09:44:26.623Z,28.65
2022-08-17T09:47:05.105Z,28.64
2022-08-17T09:49:44.124Z,27.71
2022-08-17T09:52:20.727Z,26.80
2022-08-17T09:54:52.168Z,26.91
2022-08-17T09:57:42.261Z,26.82
2022-08-17T10:00:22.578Z,27.05
2022-08-17T10:03:21.115Z,27.18
2022-08-17T10:05:59.791Z,26.40
2022-08-17T10:08:41.894Z,26.16
2022-08-17T10:11:33.507Z,25.72
2022-08-17T10:14:37.653Z,25.61
2022-08-17T10:17:14.447Z,25.63
2022-08-17T10:19:55.739Z,25.75
2022-08-17T10:22:34.629Z,25.94
2022-08-17T10:25:22.524Z,26.11
2022-08-17T10:27:59.580Z,26.15
2022-08-17T10:30:33.180Z,25.78
2022-08-17T10:33:05.962Z,25.58
2022-08-17T10:35:46.839Z,25.46
2022-08-17T10:38:41.031Z,25.69
2022-08-17T10:41:26.879Z,25.78
2022-08-17T10:44:38.975Z,25.93
2022-08-17T10:47:08.286Z,25.98
2022-08-17T10:49:37.743Z,26.06
2022-08-17T10:52:47.012Z,26.08
2022-08-17T10:55:17.774Z,25.79
2022-08-17T10:57:48.948Z,25.51
2022-08-17T11:01:05.925Z,25.48
2022-08-17T11:03:33.558Z,25.17
2022-08-17T11:06:17.815Z,25.31
2022-08-17T11:09:26.787Z,25.29
2022-08-17T11:12:14.576Z,25.34
2022-08-17T11:15:24.574Z,25.51
2022-08-17T11:18:15.387Z,25.65
2022-08-17T11:21:24.322Z,25.67
2022-08-17T11:24:18.460Z,25.13
2022-08-17T11:27:03.337Z,24.65
2022-08-17T11:29:37.890Z,24.29
2022-08-17T11:32:11.226Z,24.22
2022-08-17T11:34:42.900Z,24.53
2022-08-17T11:37:50.626Z,24.74
2022-08-17T11:40:48.735Z,24.87
2022-08-17T11:43:49.983Z,24.96
2022-08-17T11:46:30.111Z,24.99
2022-08-17T11:49:14.273Z,24.94
2022-08-17T11:52:14.146Z,24.99
2022-08-17T11:54:48.036Z,24.75
2022-08-17T11:58:02.339Z,24.82
2022-08-17T12:00:55.074Z,24.91
2022-08-17T12:03:54.130Z,24.87
2022-08-17T12:06:46.483Z,24.87
2022-08-17T12:09:20.898Z,24.97
2022-08-17T12:12:13.305Z,25.06
2022-08-17T12:15:12.185Z,25.16
2022-08-17T12:17:42.840Z,25.23
2022-08-17T12:20:28.015Z,25.27
2022-08-17T12:23:08.117Z,25.41
2022-08-17T12:25:55.694Z,25.58
2022-08-17T12:28:28.782Z,25.77
2022-08-17T12:31:06.578Z,25.98
2022-08-17T12:33:42.102Z,25.83
2022-08-17T12:36:15.554Z,25.81
2022-08-17T12:38:53.030Z,25.46
2022-08-17T12:41:36.275Z,25.41
2022-08-17T12:44:12.187Z,25.37
2022-08-17T12:46:52.270Z,25.27
2022-08-17T12:49:31.891Z,25.30
2022-08-17T12:52:15.526Z,25.38
2022-08-17T12:54:55.479Z,25.38
2022-08-17T12:57:29.155Z,25.18
2022-08-17T13:00:00.239Z,25.14
2022-08-17T13:02:41.257Z,24.65
2022-08-17T13:05:21.774Z,24.62
2022-08-17T13:07:49.314Z,24.55
2022-08-17T13:10:27.390Z,24.44
2022-08-17T13:12:58.953Z,24.54
2022-08-17T13:15:33.631Z,24.73
2022-08-17T13:18:07.679Z,24.77
2022-08-17T13:20:35.982Z,24.80
2022-08-17T13:23:11.878Z,24.72
2022-08-17T13:25:40.391Z,24.97
2022-08-17T13:28:18.876Z,25.29
2022-08-17T13:31:23.375Z,25.66
2022-08-17T13:33:50.231Z,25.83
2022-08-17T13:36:28.048Z,26.06
2022-08-17T13:39:11.919Z,25.95
2022-08-17T13:41:39.236Z,25.82
2022-08-17T13:44:33.901Z,25.61
2022-08-17T13:47:02.651Z,25.75
2022-08-17T13:49:48.260Z,25.61
2022-08-17T13:52:38.069Z,25.43
2022-08-17T13:55:15.640Z,25.56
2022-08-17T13:57:48.146Z,25.66
2022-08-17T14:00:28.161Z,26.00
2022-08-17T14:02:55.250Z,26.04
2022-08-17T14:05:22.142Z,26.26
2022-08-17T14:07:57.308Z,26.41
2022-08-17T14:10:25.896Z,26.71
2022-08-17T14:12:54.116Z,26.98
2022-08-17T14:15:54.644Z,27.23
2022-08-17T14:18:12.529Z,27.47
2022-08-17T14:20:39.860Z,27.62
2022-08-17T14:23:06.855Z,27.75
2022-08-17T14:25:34.164Z,27.80
2022-08-17T14:28:01.937Z,27.81
2022-08-17T14:30:30.408Z,27.77
2022-08-17T14:32:58.864Z,27.89
2022-08-17T14:35:26.142Z,28.01
2022-08-17T14:37:53.657Z,28.06
2022-08-17T14:40:22.192Z,28.15
2022-08-17T14:42:49.172Z,28.24
2022-08-17T14:45:30.487Z,28.22
2022-08-17T14:48:03.305Z,28.29
2022-08-17T14:50:30.317Z,28.33
2022-08-17T14:52:59.134Z,28.26
2022-08-17T14:55:26.796Z,28.10
2022-08-17T14:57:53.700Z,28.11
2022-08-17T15:00:21.466Z,28.12
2022-08-17T15:02:52.817Z,28.14
2022-08-17T15:05:24.871Z,28.23
2022-08-17T15:07:53.066Z,28.18
2022-08-17T15:10:21.415Z,28.19
2022-08-17T15:12:48.554Z,28.23
2022-08-17T15:15:17.770Z,28.20
2022-08-17T15:17:54.853Z,28.22
2022-08-17T15:20:28.407Z,28.23
2022-08-17T15:22:56.988Z,28.19
2022-08-17T15:25:27.058Z,28.19
2022-08-17T15:27:53.959Z,28.20
2022-08-17T15:30:22.064Z,28.16
2022-08-17T15:32:54.284Z,28.11
2022-08-17T15:35:28.571Z,28.11
2022-08-17T15:37:58.538Z,28.01
2022-08-17T15:40:25.433Z,28.00
2022-08-17T15:42:52.419Z,27.94
2022-08-17T15:45:24.597Z,27.93
2022-08-17T15:47:51.565Z,27.80
2022-08-17T15:50:18.713Z,27.76
2022-08-17T15:52:47.002Z,27.71
2022-08-17T15:55:15.208Z,27.48
2022-08-17T15:57:42.291Z,26.91
2022-08-17T16:00:11.039Z,26.97
2022-08-17T16:03:44.450Z,27.09
2022-08-17T16:05:30.127Z,27.20
2022-08-17T16:07:59.624Z,27.29
2022-08-17T16:10:35.103Z,27.35
2022-08-17T16:13:04.342Z,27.41
2022-08-17T16:15:31.985Z,27.39
2022-08-17T16:17:59.544Z,27.37
2022-08-17T16:20:26.943Z,27.36
2022-08-17T16:22:55.176Z,27.40
2022-08-17T16:25:38.450Z,27.35
2022-08-17T16:28:16.145Z,27.09
2022-08-17T16:35:13.293Z,27.17
2022-08-17T16:37:40.196Z,27.11
2022-08-17T16:40:13.465Z,27.13
2022-08-17T16:42:42.607Z,27.18
2022-08-17T16:45:14.181Z,27.17
2022-08-17T16:47:46.947Z,27.20
2022-08-17T16:50:16.774Z,27.19
2022-08-17T16:52:45.043Z,27.17
2022-08-17T16:55:13.576Z,27.11
2022-08-17T16:57:47.311Z,27.05
2022-08-17T17:00:20.417Z,26.98
2022-08-17T17:02:48.633Z,26.88
2022-08-17T17:05:57.704Z,26.87
2022-08-17T17:08:33.016Z,26.84
2022-08-17T17:11:10.816Z,26.74
2022-08-17T17:13:46.403Z,26.52
2022-08-17T17:16:24.408Z,26.54
2022-08-17T17:19:10.185Z,26.54
2022-08-17T17:21:46.932Z,26.48
2022-08-17T17:24:23.583Z,26.45
2022-08-17T17:27:20.971Z,26.40
2022-08-17T17:30:07.779Z,26.33
2022-08-17T17:32:40.592Z,26.32
2022-08-17T17:35:16.259Z,26.30
2022-08-17T17:37:46.263Z,26.22
2022-08-17T17:40:21.299Z,26.21
2022-08-17T17:42:51.229Z,26.12
2022-08-17T17:45:26.476Z,25.94
2022-08-17T17:47:53.738Z,25.83
2022-08-17T17:50:38.716Z,25.71
2022-08-17T17:53:18.922Z,25.67
2022-08-17T17:56:19.638Z,25.68
2022-08-17T17:59:12.860Z,25.64
2022-08-17T18:01:55.294Z,25.60
2022-08-17T18:04:32.668Z,25.56
2022-08-17T18:07:17.489Z,25.53
2022-08-17T18:10:03.859Z,25.45
2022-08-17T18:12:43.322Z,25.39
2022-08-17T18:15:35.595Z,25.36
2022-08-17T18:18:34.845Z,25.30
2022-08-17T18:21:08.199Z,25.27
2022-08-17T18:23:35.150Z,25.22
2022-08-17T18:26:02.386Z,25.17
2022-08-17T18:28:36.254Z,25.14
2022-08-17T18:31:15.380Z,25.09
2022-08-17T18:33:48.199Z,25.04
2022-08-17T18:36:28.421Z,24.95
2022-08-17T18:39:13.928Z,24.92
2022-08-17T18:41:43.076Z,24.89
2022-08-17T18:44:24.091Z,24.77
2022-08-17T18:47:12.073Z,24.79
2022-08-17T18:49:41.723Z,24.76
2022-08-17T18:52:15.245Z,24.62
2022-08-17T18:55:05.079Z,24.57
2022-08-17T18:57:35.590Z,24.55
2022-08-17T19:00:13.395Z,24.53
2022-08-17T19:02:57.240Z,24.50
2022-08-17T19:05:36.757Z,24.46
2022-08-17T19:08:23.311Z,24.41
2022-08-17T19:10:55.381Z,24.38
2022-08-17T19:13:31.126Z,24.33
2022-08-17T19:16:14.104Z,24.27
2022-08-17T19:18:48.707Z,24.19
2022-08-17T19:21:23.658Z,23.70
2022-08-17T19:23:59.226Z,23.59
2022-08-17T19:26:54.502Z,23.59
2022-08-17T19:29:34.260Z,23.60
2022-08-17T19:32:02.761Z,23.54
2022-08-17T19:34:34.701Z,23.48
2022-08-17T19:37:12.404Z,23.46
2022-08-17T19:39:53.318Z,23.38
2022-08-17T19:42:35.444Z,23.28
2022-08-17T19:45:15.666Z,23.15
2022-08-17T19:47:57.174Z,22.92
2022-08-17T19:50:36.936Z,22.80
2022-08-17T19:53:19.110Z,22.79
2022-08-17T19:55:59.725Z,22.77
2022-08-17T19:58:47.714Z,22.70
2022-08-17T20:01:29.837Z,22.75
2022-08-17T20:04:11.039Z,22.85
2022-08-17T20:06:43.742Z,22.92
2022-08-17T20:09:29.626Z,22.94
2022-08-17T20:12:08.870Z,22.96
2022-08-17T20:14:41.824Z,22.97
2022-08-17T20:17:25.804Z,22.93
2022-08-17T20:20:08.745Z,22.87
2022-08-17T20:22:54.766Z,22.70
2022-08-17T20:25:35.706Z,22.54
2022-08-17T20:28:18.683Z,22.48
2022-08-17T20:30:45.946Z,22.47
2022-08-17T20:33:25.814Z,22.44
2022-08-17T20:36:16.379Z,22.48
2022-08-17T20:38:49.018Z,22.45
2022-08-17T20:41:19.865Z,22.43
2022-08-17T20:44:04.161Z,22.47
2022-08-17T20:46:55.739Z,22.52
2022-08-17T20:49:45.534Z,22.55
2022-08-17T20:52:15.087Z,22.14
2022-08-17T20:54:48.244Z,21.68
2022-08-17T20:57:47.463Z,21.33
2022-08-17T21:00:43.662Z,21.36
2022-08-17T21:03:51.862Z,21.57
2022-08-17T21:06:25.037Z,21.62
2022-08-17T21:08:57.718Z,21.60
2022-08-17T21:11:58.225Z,21.61
2022-08-17T21:14:57.747Z,21.65
2022-08-17T21:17:41.397Z,21.65
2022-08-17T21:20:33.626Z,21.64
2022-08-17T21:23:35.339Z,21.66
2022-08-17T21:26:30.171Z,21.69
2022-08-17T21:29:29.861Z,21.74
2022-08-17T21:32:19.299Z,21.82
2022-08-17T21:35:24.951Z,21.89
2022-08-17T21:38:01.318Z,21.81
2022-08-17T21:40:32.508Z,21.76
2022-08-17T21:43:17.311Z,21.81
2022-08-17T21:45:57.006Z,21.83
2022-08-17T21:48:28.111Z,21.85
2022-08-17T21:51:08.140Z,21.79
2022-08-17T21:53:44.200Z,21.74
2022-08-17T21:56:22.019Z,21.73
2022-08-17T21:58:59.613Z,21.69
2022-08-17T22:01:30.657Z,21.67
2022-08-17T22:04:05.012Z,21.69
2022-08-17T22:06:38.696Z,21.74
2022-08-17T22:09:14.431Z,21.79
2022-08-17T22:11:59.676Z,21.85
2022-08-17T22:14:52.108Z,21.95
2022-08-17T22:17:22.237Z,22.02
2022-08-17T22:19:54.955Z,22.05
2022-08-17T22:22:34.131Z,22.10
2022-08-17T22:25:06.321Z,22.12
2022-08-17T22:27:55.177Z,21.92
2022-08-17T22:30:34.434Z,21.85
2022-08-17T22:33:39.490Z,21.49
2022-08-17T22:36:26.853Z,21.05
2022-08-17T22:38:59.166Z,20.82
2022-08-17T22:41:52.631Z,20.78
2022-08-17T22:44:28.372Z,20.91
2022-08-17T22:47:01.871Z,20.94
2022-08-17T22:49:35.222Z,21.09
2022-08-17T22:52:16.666Z,21.18
2022-08-17T22:54:48.216Z,21.32
2022-08-17T22:57:18.661Z,21.46
2022-08-17T22:59:50.452Z,21.49
2022-08-17T23:02:25.932Z,21.51
2022-08-17T23:05:19.787Z,21.62
2022-08-17T23:07:50.906Z,21.57
2022-08-17T23:10:19.782Z,21.51
2022-08-17T23:12:46.700Z,21.55
2022-08-17T23:15:18.023Z,21.60
2022-08-17T23:17:45.891Z,21.58
2022-08-17T23:20:16.235Z,21.59
2022-08-17T23:22:52.799Z,21.54
2022-08-17T23:25:28.156Z,21.64
2022-08-17T23:27:56.880Z,21.66
2022-08-17T23:30:23.986Z,21.69
2022-08-17T23:32:53.863Z,21.73
2022-08-17T23:35:39.996Z,21.70
2022-08-17T23:38:11.480Z,21.74
2022-08-17T23:40:40.457Z,21.69
2022-08-17T23:43:15.380Z,21.64
2022-08-17T23:45:53.174Z,21.67
2022-08-17T23:48:36.248Z,21.65
2022-08-17T23:51:11.122Z,21.66
2022-08-17T23:53:44.186Z,21.68
2022-08-17T23:56:11.780Z,21.70
2022-08-17T23:58:40.606Z,21.88
